»·PEaware :: DAL691 KSBA-KONT

DAL691 :: KSBA-KONT

FLIGHT INFORMATION

Flight Status: Arrived
Operator:
Delta Air Lines
More flights by this operator :: More flights under this callsign
Pilot: Thomas N. (7419)
Aircraft: SAAB 340
(SF34)
More flights by this aircraft type
Origin: KSBA Santa Barbara Mun
United States
Destination: KONT Ontario Intl
United States
More flights between these airports :: More routes between these airports
Route: HENER FIM V186 ITSME V264 POM V197 PDZ
File this flight plan on PilotEdge
Remarks:
Altitude:
(Current/Filed)
9,000ft
Speed:
(Current/Filed)
250kts
Departed: 19-Feb-16 10:59 AM
Arrived: 19-Feb-16 11:39 AM
Distance/Time
Traveled:
113nm/0:40
Distance/Time
To Go:
Arrived

Flight Plot

Page will automatically refresh every two minutes.


Map Options




Map Legend


Flown Route
Filed Route
Departure Airport
Arrival Airport
Navaid (VOR, NDB)
Fix

Horizontal Profiles

Position Reports

Time Latitude Longitude Heading Altitude Ground
Speed
19-Feb-16 10:16 34.425601 -119.836747 189 18ft 0kts
19-Feb-16 10:17 34.425601 -119.836747 189 18ft 0kts
19-Feb-16 10:18 34.425601 -119.836747 189 18ft 0kts
19-Feb-16 10:19 34.425601 -119.836747 189 18ft 0kts
19-Feb-16 10:20 34.425601 -119.836747 189 18ft 0kts
19-Feb-16 10:21 34.425601 -119.836747 189 18ft 0kts
19-Feb-16 10:22 34.425601 -119.836747 189 18ft 0kts
19-Feb-16 10:23 34.425601 -119.836747 189 18ft 0kts
19-Feb-16 10:24 34.425601 -119.836747 189 18ft 0kts
19-Feb-16 10:25 34.425601 -119.836747 189 18ft 0kts
19-Feb-16 10:26 34.425601 -119.836747 189 18ft 0kts
19-Feb-16 10:27 34.425601 -119.836747 189 18ft 0kts
19-Feb-16 10:28 34.425601 -119.836747 189 18ft 0kts
19-Feb-16 10:29 34.425601 -119.836747 189 18ft 0kts
19-Feb-16 10:30 34.425601 -119.836747 189 18ft 0kts
19-Feb-16 10:31 34.425601 -119.836747 189 18ft 0kts
19-Feb-16 10:32 34.425601 -119.836747 189 18ft 0kts
19-Feb-16 10:33 34.425601 -119.836747 189 18ft 0kts
19-Feb-16 10:34 34.425601 -119.836747 189 18ft 0kts
19-Feb-16 10:35 34.425601 -119.836747 189 18ft 0kts
19-Feb-16 10:36 34.425601 -119.836747 189 18ft 0kts
19-Feb-16 10:37 34.425601 -119.836747 189 18ft 0kts
19-Feb-16 10:38 34.425601 -119.836747 189 18ft 0kts
19-Feb-16 10:39 34.425601 -119.836747 189 18ft 0kts
19-Feb-16 10:40 34.425601 -119.836747 189 18ft 0kts
19-Feb-16 10:41 34.425601 -119.836747 189 18ft 0kts
19-Feb-16 10:42 34.425601 -119.836747 189 18ft 0kts
19-Feb-16 10:43 34.425601 -119.836747 189 18ft 0kts
19-Feb-16 10:44 34.425599 -119.836748 189 18ft 0kts
19-Feb-16 10:45 34.425599 -119.836748 189 18ft 0kts
19-Feb-16 10:46 34.425559 -119.836771 214 18ft 0kts
19-Feb-16 10:47 34.425391 -119.837960 302 18ft 4kts
19-Feb-16 10:48 34.426464 -119.837441 89 18ft 11kts
19-Feb-16 10:49 34.426754 -119.834642 3 18ft 0kts
19-Feb-16 10:50 34.426754 -119.834642 3 18ft 0kts
19-Feb-16 10:51 34.426754 -119.834642 3 18ft 0kts
19-Feb-16 10:52 34.426862 -119.834639 359 18ft 4kts
19-Feb-16 10:53 34.427601 -119.855558 267 219ft 146kts
19-Feb-16 10:54 34.423279 -119.914614 264 1097ft 191kts
19-Feb-16 10:55 34.418244 -119.979230 264 2201ft 192kts
19-Feb-16 10:56 34.399123 -120.032878 183 3276ft 185kts
19-Feb-16 10:57 34.368677 -119.991524 92 4384ft 177kts
19-Feb-16 10:58 34.369369 -119.933433 92 5465ft 174kts
19-Feb-16 10:59 34.367192 -119.875403 94 6561ft 171kts
19-Feb-16 11:00 34.364187 -119.816462 95 7690ft 186kts
19-Feb-16 11:01 34.360725 -119.752241 95 8804ft 194kts
19-Feb-16 11:02 34.356952 -119.683975 94 9255ft 218kts
19-Feb-16 11:03 34.352703 -119.607626 94 9253ft 231kts
19-Feb-16 11:04 34.348238 -119.528327 94 9253ft 237kts
19-Feb-16 11:05 34.343612 -119.447091 93 9256ft 250kts
19-Feb-16 11:06 34.338713 -119.361878 93 9262ft 260kts
19-Feb-16 11:07 34.333590 -119.273788 94 9269ft 265kts
19-Feb-16 11:08 34.333555 -119.184701 83 9269ft 266kts
19-Feb-16 11:09 34.340696 -119.095291 84 9269ft 267kts
19-Feb-16 11:10 34.347348 -119.005646 84 9270ft 266kts
19-Feb-16 11:11 34.353612 -118.919398 84 9270ft 257kts
19-Feb-16 11:12 34.344199 -118.835977 117 9011ft 259kts
19-Feb-16 11:13 34.314076 -118.755641 113 9008ft 261kts
19-Feb-16 11:14 34.286350 -118.675142 112 9005ft 260kts
19-Feb-16 11:15 34.259024 -118.595440 112 9001ft 258kts
19-Feb-16 11:16 34.231668 -118.515854 112 8998ft 257kts
19-Feb-16 11:17 34.207602 -118.439855 110 8995ft 257kts
19-Feb-16 11:18 34.184163 -118.362560 110 8992ft 257kts
19-Feb-16 11:19 34.160450 -118.284670 110 8991ft 257kts
19-Feb-16 11:20 34.136667 -118.206729 110 8998ft 257kts
19-Feb-16 11:21 34.112444 -118.127570 110 8857ft 262kts
19-Feb-16 11:22 34.087953 -118.047774 110 7948ft 253kts
19-Feb-16 11:23 34.072826 -117.985013 89 7020ft 231kts
19-Feb-16 11:24 34.075922 -117.908540 88 5731ft 229kts
19-Feb-16 11:25 34.077531 -117.837759 89 5016ft 209kts
19-Feb-16 11:26 34.069890 -117.769688 109 3822ft 211kts
19-Feb-16 11:27 34.048826 -117.709592 106 2564ft 189kts
19-Feb-16 11:28 34.039010 -117.655256 98 1982ft 155kts
19-Feb-16 11:29 34.034261 -117.607198 94 2017ft 137kts
19-Feb-16 11:30 34.031428 -117.563004 94 1739ft 128kts
19-Feb-16 11:31 34.048277 -117.537221 342 1769ft 119kts
19-Feb-16 11:32 34.054968 -117.574362 270 1078ft 125kts
19-Feb-16 11:33 34.054301 -117.593887 228 949ft 0kts
19-Feb-16 11:34 34.053840 -117.595868 270 949ft 13kts
19-Feb-16 11:35 34.053823 -117.601532 269 949ft 17kts

Navigation Log

Ident Type
Flight plan parsing failed, navigation log unavailable